Time;durP1;ratioP1;P1;durP2;ratioP2;P2;SDS_P1;SDS_P2;PMS_P1;PMS_P2;Temp;Humidity;BMP_temperature;BMP_pressure;BME280_temperature;BME280_humidity;BME280_pressure;Samples;Min_cycle;Max_cycle;Signal;HPM_P1;HPM_P2
2022/04/02 00:01:07;;;;;;;7.97;3.25;;;;;;;;;;5016985;28;20025;-68
2022/04/02 00:03:32;;;;;;;9.23;3.55;;;;;;;;;;5020599;28;20029;-68
2022/04/02 00:05:57;;;;;;;6.32;3.47;;;;;;;;;;5017704;28;20112;-68
2022/04/02 00:08:24;;;;;;;6.38;3.42;;;;;;;;;;5018521;28;20274;-68
2022/04/02 00:10:50;;;;;;;8.85;3.75;;;;;;;;;;5016118;28;20389;-68
2022/04/02 00:13:15;;;;;;;9.63;4.00;;;;;;;;;;5015735;28;20025;-68
2022/04/02 00:15:41;;;;;;;10.80;3.20;;;;;;;;;;5015572;28;20026;-68
2022/04/02 00:18:06;;;;;;;5.55;3.25;;;;;;;;;;5013854;28;20021;-68
2022/04/02 00:20:32;;;;;;;11.15;2.90;;;;;;;;;;5016844;28;20036;-69
2022/04/02 00:25:41;;;;;;;9.63;3.92;;;;;;;;;;5018365;28;20436;-69
2022/04/02 00:28:06;;;;;;;5.85;3.63;;;;;;;;;;5016665;28;20487;-69
2022/04/02 00:30:31;;;;;;;8.98;4.18;;;;;;;;;;5011826;28;20040;-69
2022/04/02 00:32:56;;;;;;;4.57;3.13;;;;;;;;;;5014581;28;20207;-69
2022/04/02 00:35:21;;;;;;;7.53;3.70;;;;;;;;;;5013776;28;20278;-69
2022/04/02 00:37:47;;;;;;;6.78;3.53;;;;;;;;;;5013547;28;20071;-69
2022/04/02 00:40:12;;;;;;;9.40;3.65;;;;;;;;;;5013847;28;20068;-69
2022/04/02 00:42:37;;;;;;;5.78;3.20;;;;;;;;;;5014914;28;20271;-69
2022/04/02 00:45:03;;;;;;;11.02;3.85;;;;;;;;;;5017969;28;20377;-69
2022/04/02 00:47:28;;;;;;;6.68;3.35;;;;;;;;;;5019492;28;20044;-68
2022/04/02 00:49:54;;;;;;;14.15;4.35;;;;;;;;;;5016626;28;20494;-68
2022/04/02 00:52:19;;;;;;;10.02;3.80;;;;;;;;;;5014458;28;20048;-68
2022/04/02 00:54:46;;;;;;;9.77;3.78;;;;;;;;;;5020248;28;20065;-69
2022/04/02 00:57:11;;;;;;;6.70;3.50;;;;;;;;;;5016880;28;20068;-69
2022/04/02 00:59:36;;;;;;;9.02;3.40;;;;;;;;;;5018784;28;20104;-69
2022/04/02 01:02:01;;;;;;;7.33;3.60;;;;;;;;;;5018485;28;20404;-69
2022/04/02 01:04:27;;;;;;;6.53;3.47;;;;;;;;;;5016994;28;20282;-68
2022/04/02 01:06:52;;;;;;;6.25;3.35;;;;;;;;;;5014383;28;20029;-69
2022/04/02 01:09:17;;;;;;;7.47;3.13;;;;;;;;;;5022201;28;20108;-68
2022/04/02 01:11:44;;;;;;;5.80;3.23;;;;;;;;;;5017283;28;20119;-67
2022/04/02 01:14:10;;;;;;;5.50;3.00;;;;;;;;;;5015674;28;20286;-68
2022/04/02 01:16:35;;;;;;;6.35;3.15;;;;;;;;;;5022517;28;20435;-68
2022/04/02 01:19:01;;;;;;;8.27;3.20;;;;;;;;;;5028272;28;20029;-68
2022/04/02 01:21:27;;;;;;;6.00;3.45;;;;;;;;;;5021372;28;20036;-68
2022/04/02 01:23:52;;;;;;;6.43;3.03;;;;;;;;;;5022853;28;20040;-69
2022/04/02 01:26:18;;;;;;;6.35;3.17;;;;;;;;;;5021605;28;20041;-68
2022/04/02 01:28:43;;;;;;;7.38;3.20;;;;;;;;;;5022168;28;20040;-68
2022/04/02 01:31:08;;;;;;;7.00;2.88;;;;;;;;;;5026147;28;20029;-68
2022/04/02 01:33:34;;;;;;;6.55;3.20;;;;;;;;;;5024088;28;20780;-68
2022/04/02 01:36:00;;;;;;;8.65;3.78;;;;;;;;;;5023232;28;20025;-68
2022/04/02 01:38:25;;;;;;;7.28;4.03;;;;;;;;;;5021742;28;20507;-69
2022/04/02 01:40:51;;;;;;;10.23;3.60;;;;;;;;;;5029525;28;20033;-68
2022/04/02 01:43:16;;;;;;;6.83;3.47;;;;;;;;;;5025285;28;20025;-67
2022/04/02 01:45:41;;;;;;;5.72;3.35;;;;;;;;;;5022818;28;20357;-67
2022/04/02 01:48:06;;;;;;;4.78;3.05;;;;;;;;;;5026931;28;20036;-68
2022/04/02 01:50:32;;;;;;;9.32;3.83;;;;;;;;;;5033061;28;20278;-68
2022/04/02 01:52:57;;;;;;;7.30;2.97;;;;;;;;;;5027770;28;20024;-68
2022/04/02 01:55:22;;;;;;;5.50;3.08;;;;;;;;;;5025739;28;20444;-68
2022/04/02 01:57:48;;;;;;;8.35;3.30;;;;;;;;;;5026439;28;20263;-68
2022/04/02 02:00:13;;;;;;;10.73;3.90;;;;;;;;;;5022702;28;20025;-68
2022/04/02 02:02:39;;;;;;;8.10;3.47;;;;;;;;;;5025152;28;20032;-69
2022/04/02 02:05:05;;;;;;;5.32;3.15;;;;;;;;;;5026823;28;20021;-68
2022/04/02 02:07:30;;;;;;;3.88;2.72;;;;;;;;;;5024243;28;20134;-69
2022/04/02 02:09:57;;;;;;;7.10;3.33;;;;;;;;;;5023820;28;20034;-68
2022/04/02 02:12:22;;;;;;;4.95;2.90;;;;;;;;;;5022674;28;20018;-68
2022/04/02 02:14:47;;;;;;;4.45;3.13;;;;;;;;;;5024001;28;20072;-68
2022/04/02 02:17:15;;;;;;;5.90;2.92;;;;;;;;;;5026276;28;20068;-69
2022/04/02 02:19:40;;;;;;;6.38;3.15;;;;;;;;;;5032463;28;20096;-69
2022/04/02 02:22:05;;;;;;;6.60;3.78;;;;;;;;;;5021760;28;20104;-68
2022/04/02 02:24:30;;;;;;;5.25;3.03;;;;;;;;;;5027370;28;20293;-68
2022/04/02 02:26:55;;;;;;;6.72;2.25;;;;;;;;;;5018752;28;20348;-69
2022/04/02 02:29:21;;;;;;;5.53;2.80;;;;;;;;;;5019615;28;20267;-68
2022/04/02 02:31:46;;;;;;;10.00;3.33;;;;;;;;;;5016696;28;20330;-67
2022/04/02 02:36:55;;;;;;;3.78;2.42;;;;;;;;;;5019844;28;20101;-68
2022/04/02 02:39:20;;;;;;;2.97;2.40;;;;;;;;;;5023679;28;20249;-69
2022/04/02 02:41:45;;;;;;;8.23;2.78;;;;;;;;;;5021464;28;20056;-68
2022/04/02 02:44:10;;;;;;;8.55;2.85;;;;;;;;;;5022176;28;20038;-68
2022/04/02 02:46:35;;;;;;;3.30;2.58;;;;;;;;;;5024670;28;20104;-68
2022/04/02 02:49:01;;;;;;;8.23;2.55;;;;;;;;;;5021081;28;20025;-69
2022/04/02 02:51:26;;;;;;;6.72;2.58;;;;;;;;;;5019958;28;20498;-68
2022/04/02 02:53:51;;;;;;;4.00;2.60;;;;;;;;;;5042714;22;20041;-68
2022/04/02 02:56:16;;;;;;;4.03;2.65;;;;;;;;;;5032845;28;20648;-68
2022/04/02 02:58:41;;;;;;;4.90;2.22;;;;;;;;;;5039844;28;20452;-69
2022/04/02 03:01:07;;;;;;;5.60;2.43;;;;;;;;;;5037629;28;20266;-68
2022/04/02 03:03:32;;;;;;;6.95;2.70;;;;;;;;;;5035889;28;20324;-69
2022/04/02 03:05:57;;;;;;;7.93;2.80;;;;;;;;;;5042462;28;20064;-68
2022/04/02 03:08:23;;;;;;;4.00;2.45;;;;;;;;;;5037621;28;20044;-68
2022/04/02 03:10:48;;;;;;;7.32;3.55;;;;;;;;;;5042674;28;20033;-68
2022/04/02 03:13:14;;;;;;;8.55;2.85;;;;;;;;;;5033463;28;20044;-68
2022/04/02 03:15:39;;;;;;;7.28;2.95;;;;;;;;;;5042840;28;20507;-68
2022/04/02 03:18:06;;;;;;;5.45;2.47;;;;;;;;;;5038350;28;20052;-69
2022/04/02 03:20:31;;;;;;;4.95;2.80;;;;;;;;;;5038715;28;20428;-68
2022/04/02 03:22:57;;;;;;;4.25;2.80;;;;;;;;;;5038301;28;20039;-68
2022/04/02 03:25:22;;;;;;;6.88;2.78;;;;;;;;;;5039801;28;20026;-68
2022/04/02 03:27:48;;;;;;;4.47;2.67;;;;;;;;;;5036447;28;20515;-69
2022/04/02 03:30:21;;;;;;;5.55;2.78;;;;;;;;;;5041908;28;20282;-67
2022/04/02 03:32:46;;;;;;;6.10;2.83;;;;;;;;;;5030492;28;20041;-68
2022/04/02 03:35:14;;;;;;;4.88;2.30;;;;;;;;;;5035345;28;20036;-68
2022/04/02 03:37:40;;;;;;;4.53;2.65;;;;;;;;;;5034962;28;20035;-68
2022/04/02 03:40:09;;;;;;;6.00;2.45;;;;;;;;;;5023496;28;20021;-69
2022/04/02 03:42:37;;;;;;;5.53;2.83;;;;;;;;;;5016556;28;20045;-68
2022/04/02 03:45:06;;;;;;;5.00;2.58;;;;;;;;;;5016209;28;20036;-68
2022/04/02 03:47:31;;;;;;;5.68;2.80;;;;;;;;;;5014858;28;20036;-68
2022/04/02 03:49:57;;;;;;;3.75;2.78;;;;;;;;;;5012058;28;20018;-68
2022/04/02 03:52:22;;;;;;;4.63;2.97;;;;;;;;;;5016012;28;20075;-68
2022/04/02 03:54:47;;;;;;;3.83;2.73;;;;;;;;;;5020343;28;20039;-68
2022/04/02 03:57:13;;;;;;;6.43;2.90;;;;;;;;;;5011561;28;20362;-68
2022/04/02 03:59:42;;;;;;;6.53;2.95;;;;;;;;;;5011006;28;20428;-68
2022/04/02 04:02:07;;;;;;;4.95;3.15;;;;;;;;;;5013362;28;20029;-68
2022/04/02 04:04:33;;;;;;;6.00;2.78;;;;;;;;;;5012223;28;20413;-68
2022/04/02 04:06:58;;;;;;;8.65;2.85;;;;;;;;;;5010958;28;20026;-68
2022/04/02 04:09:24;;;;;;;2.45;2.25;;;;;;;;;;5014407;28;20348;-68
2022/04/02 04:11:49;;;;;;;4.85;2.53;;;;;;;;;;5008952;28;20053;-68
2022/04/02 04:14:15;;;;;;;8.27;3.25;;;;;;;;;;5011729;28;20026;-68
2022/04/02 04:16:41;;;;;;;4.75;2.55;;;;;;;;;;5018041;28;20021;-68
2022/04/02 04:19:06;;;;;;;5.25;2.83;;;;;;;;;;5009082;28;20041;-68
2022/04/02 04:21:31;;;;;;;5.10;2.83;;;;;;;;;;5013416;28;20034;-69
2022/04/02 04:23:56;;;;;;;4.95;2.55;;;;;;;;;;5014150;28;20095;-68
2022/04/02 04:26:21;;;;;;;4.38;2.95;;;;;;;;;;5011195;28;20277;-68
2022/04/02 04:28:46;;;;;;;8.80;3.15;;;;;;;;;;5010211;28;20745;-68
2022/04/02 04:31:17;;;;;;;3.13;2.60;;;;;;;;;;5012372;28;20686;-69
2022/04/02 04:33:42;;;;;;;7.60;2.65;;;;;;;;;;5020519;28;20357;-68
2022/04/02 04:36:08;;;;;;;7.35;3.08;;;;;;;;;;5017501;28;20407;-68
2022/04/02 04:38:33;;;;;;;4.03;2.58;;;;;;;;;;5022433;28;20025;-68
2022/04/02 04:40:59;;;;;;;5.60;2.78;;;;;;;;;;5010698;28;20330;-68
2022/04/02 04:43:25;;;;;;;3.47;2.60;;;;;;;;;;5006576;28;20412;-68
2022/04/02 04:45:50;;;;;;;5.78;3.13;;;;;;;;;;5006265;28;20469;-68
2022/04/02 04:48:15;;;;;;;7.83;2.60;;;;;;;;;;5005593;28;20251;-68
2022/04/02 04:50:40;;;;;;;5.40;2.80;;;;;;;;;;5007632;28;20267;-68
2022/04/02 04:53:05;;;;;;;4.55;2.90;;;;;;;;;;5011823;28;20432;-69
2022/04/02 04:55:30;;;;;;;4.55;2.88;;;;;;;;;;5018220;28;20025;-68
2022/04/02 04:57:56;;;;;;;3.92;2.60;;;;;;;;;;5008222;28;20092;-68
2022/04/02 05:00:22;;;;;;;5.43;2.50;;;;;;;;;;5016019;28;20289;-69
2022/04/02 05:02:47;;;;;;;6.13;2.72;;;;;;;;;;5021754;28;20041;-67
2022/04/02 05:05:13;;;;;;;8.43;3.03;;;;;;;;;;5021164;28;20021;-69
2022/04/02 05:07:41;;;;;;;7.32;3.10;;;;;;;;;;5011734;28;20455;-69
2022/04/02 05:10:07;;;;;;;10.02;4.13;;;;;;;;;;5027003;28;20064;-69
2022/04/02 05:12:33;;;;;;;10.90;3.40;;;;;;;;;;5006261;28;20637;-69
2022/04/02 05:14:58;;;;;;;9.93;3.67;;;;;;;;;;5007991;28;20030;-68
2022/04/02 05:17:23;;;;;;;4.82;2.67;;;;;;;;;;5011756;28;20021;-68
2022/04/02 05:19:49;;;;;;;8.65;3.42;;;;;;;;;;5015925;28;20038;-68
2022/04/02 05:22:14;;;;;;;6.43;2.85;;;;;;;;;;5010833;28;20042;-68
2022/04/02 05:24:39;;;;;;;6.43;2.78;;;;;;;;;;5009127;28;20034;-68
2022/04/02 05:27:04;;;;;;;6.38;3.28;;;;;;;;;;5013852;28;20052;-68
2022/04/02 05:29:30;;;;;;;3.70;2.50;;;;;;;;;;5021992;28;20026;-69
2022/04/02 05:31:55;;;;;;;7.85;3.17;;;;;;;;;;5014656;28;20381;-69
2022/04/02 05:34:20;;;;;;;6.63;2.55;;;;;;;;;;5012909;28;20017;-69
2022/04/02 05:36:45;;;;;;;6.73;2.80;;;;;;;;;;5009853;28;20175;-68
2022/04/02 05:39:10;;;;;;;5.32;3.00;;;;;;;;;;5010976;28;20293;-69
2022/04/02 05:41:37;;;;;;;5.85;2.88;;;;;;;;;;5010547;28;20144;-69
2022/04/02 05:44:02;;;;;;;4.47;2.90;;;;;;;;;;5009433;28;20601;-69
2022/04/02 05:46:27;;;;;;;4.30;2.70;;;;;;;;;;5014487;28;20039;-68
2022/04/02 05:48:52;;;;;;;6.97;2.40;;;;;;;;;;5007542;28;20064;-69
2022/04/02 05:51:18;;;;;;;7.82;3.28;;;;;;;;;;5013911;28;20026;-68
2022/04/02 05:53:43;;;;;;;4.72;2.63;;;;;;;;;;5016355;28;20807;-69
2022/04/02 05:56:09;;;;;;;3.60;2.78;;;;;;;;;;5011962;28;20025;-69
2022/04/02 05:58:36;;;;;;;9.80;2.80;;;;;;;;;;5006342;28;20271;-69
2022/04/02 06:01:01;;;;;;;7.25;2.47;;;;;;;;;;5006224;28;20116;-69
2022/04/02 06:03:27;;;;;;;4.78;2.70;;;;;;;;;;5013517;28;20535;-68
2022/04/02 06:05:52;;;;;;;5.68;3.10;;;;;;;;;;5018971;28;20025;-68
2022/04/02 06:08:17;;;;;;;4.18;2.67;;;;;;;;;;5021162;28;20060;-69
2022/04/02 06:10:44;;;;;;;6.38;3.25;;;;;;;;;;5014628;28;20036;-69
2022/04/02 06:13:09;;;;;;;4.53;2.65;;;;;;;;;;5019519;28;20022;-69
2022/04/02 06:15:35;;;;;;;5.25;2.70;;;;;;;;;;5016143;28;20068;-68
2022/04/02 06:18:00;;;;;;;6.37;2.57;;;;;;;;;;5014739;28;20021;-69
2022/04/02 06:20:25;;;;;;;3.75;2.50;;;;;;;;;;5026195;28;20381;-68
2022/04/02 06:22:50;;;;;;;7.90;3.03;;;;;;;;;;5022339;28;20370;-68
2022/04/02 06:25:15;;;;;;;7.40;2.67;;;;;;;;;;5013443;28;20042;-69
2022/04/02 06:27:41;;;;;;;9.30;2.92;;;;;;;;;;5014103;28;20381;-69
2022/04/02 06:30:07;;;;;;;4.55;3.35;;;;;;;;;;5013659;28;20313;-69
2022/04/02 06:32:32;;;;;;;7.28;3.20;;;;;;;;;;5015329;28;20029;-68
2022/04/02 06:34:57;;;;;;;3.55;2.85;;;;;;;;;;5013445;28;20473;-68
2022/04/02 06:37:22;;;;;;;10.30;3.20;;;;;;;;;;5017191;28;20294;-68
2022/04/02 06:39:47;;;;;;;6.60;2.97;;;;;;;;;;5011269;28;20293;-69
2022/04/02 06:42:13;;;;;;;5.22;3.15;;;;;;;;;;5015289;28;20317;-69
2022/04/02 06:44:38;;;;;;;7.95;3.50;;;;;;;;;;5020084;28;20487;-69
2022/04/02 06:47:03;;;;;;;3.70;2.85;;;;;;;;;;5016237;28;20075;-68
2022/04/02 06:49:28;;;;;;;7.25;3.17;;;;;;;;;;5017663;28;20294;-69
2022/04/02 06:51:53;;;;;;;5.63;3.00;;;;;;;;;;5023233;28;20025;-68
2022/04/02 06:54:19;;;;;;;6.22;3.70;;;;;;;;;;5018990;28;20030;-68
2022/04/02 06:56:45;;;;;;;6.47;3.47;;;;;;;;;;5015724;28;20279;-68
2022/04/02 06:59:10;;;;;;;7.88;3.55;;;;;;;;;;5012880;28;21229;-68
2022/04/02 07:01:35;;;;;;;5.00;3.10;;;;;;;;;;5009522;28;20041;-68
2022/04/02 07:04:00;;;;;;;7.07;3.10;;;;;;;;;;5014927;28;20025;-68
2022/04/02 07:06:26;;;;;;;7.88;3.00;;;;;;;;;;5017231;28;20035;-69
2022/04/02 07:08:51;;;;;;;8.55;4.00;;;;;;;;;;5012314;28;20313;-68
2022/04/02 07:11:16;;;;;;;10.27;3.17;;;;;;;;;;5004854;28;20455;-68
2022/04/02 07:13:41;;;;;;;5.82;3.42;;;;;;;;;;5011406;28;20061;-69
2022/04/02 07:16:06;;;;;;;5.85;3.78;;;;;;;;;;5016199;28;20668;-68
2022/04/02 07:18:32;;;;;;;7.57;3.92;;;;;;;;;;5014255;28;20271;-68
2022/04/02 07:20:58;;;;;;;6.78;3.50;;;;;;;;;;5013927;28;20494;-68
2022/04/02 07:23:24;;;;;;;12.93;4.43;;;;;;;;;;5009858;28;20041;-69
2022/04/02 07:25:49;;;;;;;8.43;3.55;;;;;;;;;;5011037;28;20579;-68
2022/04/02 07:28:14;;;;;;;10.18;4.22;;;;;;;;;;5014921;28;20032;-68
2022/04/02 07:30:40;;;;;;;9.52;3.95;;;;;;;;;;5011523;28;20278;-68
2022/04/02 07:33:05;;;;;;;8.32;3.22;;;;;;;;;;5015589;28;20048;-68
2022/04/02 07:35:35;;;;;;;8.25;3.95;;;;;;;;;;5015806;28;20362;-68
2022/04/02 07:38:09;;;;;;;7.65;3.65;;;;;;;;;;5013846;28;20476;-68
2022/04/02 07:40:41;;;;;;;9.57;4.22;;;;;;;;;;5011952;28;20477;-69
2022/04/02 07:43:25;;;;;;;9.98;4.35;;;;;;;;;;5018904;28;20061;-67
2022/04/02 07:46:00;;;;;;;7.93;4.35;;;;;;;;;;5014092;28;20033;-69
2022/04/02 07:48:26;;;;;;;9.57;4.90;;;;;;;;;;5010910;28;20037;-68
2022/04/02 07:50:51;;;;;;;8.30;3.90;;;;;;;;;;5012454;28;20025;-70
2022/04/02 07:53:21;;;;;;;10.27;4.43;;;;;;;;;;5011159;28;20342;-68
2022/04/02 07:55:49;;;;;;;9.18;4.22;;;;;;;;;;5011805;28;20101;-69
2022/04/02 07:58:17;;;;;;;6.03;3.70;;;;;;;;;;5011672;28;20033;-68
2022/04/02 08:00:47;;;;;;;7.78;3.65;;;;;;;;;;5009289;28;20022;-69
2022/04/02 08:03:13;;;;;;;6.53;3.65;;;;;;;;;;5025183;28;20460;-69
2022/04/02 08:05:39;;;;;;;11.63;4.30;;;;;;;;;;5020512;28;20021;-70
2022/04/02 08:08:06;;;;;;;9.30;4.38;;;;;;;;;;5010519;28;20091;-69
2022/04/02 08:10:31;;;;;;;9.60;4.68;;;;;;;;;;5011870;28;20017;-69
2022/04/02 08:12:58;;;;;;;8.05;3.28;;;;;;;;;;5015361;28;20075;-68
2022/04/02 08:15:24;;;;;;;9.05;4.30;;;;;;;;;;5016958;28;20309;-69
2022/04/02 08:17:54;;;;;;;7.32;3.92;;;;;;;;;;5013995;28;20022;-69
2022/04/02 08:20:19;;;;;;;7.25;4.50;;;;;;;;;;5014314;28;20013;-69
2022/04/02 08:22:45;;;;;;;8.18;3.85;;;;;;;;;;5020036;28;20025;-69
2022/04/02 08:25:11;;;;;;;7.22;3.50;;;;;;;;;;5022145;28;20490;-69
2022/04/02 08:27:47;;;;;;;11.35;5.13;;;;;;;;;;5016422;28;20045;-69
2022/04/02 08:30:18;;;;;;;10.98;4.10;;;;;;;;;;5021094;28;20067;-69
2022/04/02 08:32:52;;;;;;;11.70;4.65;;;;;;;;;;5013421;28;20038;-68
2022/04/02 08:35:17;;;;;;;;;;;;;;;;;;5019748;28;20029;-69
2022/04/02 08:37:49;;;;;;;6.72;5.18;;;;;;;;;;5015845;28;19916;-69
2022/04/02 08:40:26;;;;;;;8.75;5.00;;;;;;;;;;5024567;28;20443;-68
2022/04/02 08:42:57;;;;;;;9.00;4.90;;;;;;;;;;5017806;28;20113;-69
2022/04/02 08:45:27;;;;;;;10.13;4.53;;;;;;;;;;5019192;28;20033;-67
2022/04/02 08:47:52;;;;;;;12.27;5.15;;;;;;;;;;5017469;28;20033;-68
2022/04/02 08:50:17;;;;;;;9.30;4.82;;;;;;;;;;5018022;28;20041;-68
2022/04/02 08:52:51;;;;;;;10.35;5.25;;;;;;;;;;5011275;28;20029;-68
2022/04/02 08:55:17;;;;;;;8.13;4.57;;;;;;;;;;5012182;28;20061;-68
2022/04/02 08:57:42;;;;;;;10.52;5.30;;;;;;;;;;5023194;28;20033;-68
2022/04/02 09:00:12;;;;;;;7.63;4.55;;;;;;;;;;5020493;28;20025;-68
2022/04/02 09:02:43;;;;;;;10.63;4.97;;;;;;;;;;5016833;28;20033;-70
2022/04/02 09:05:08;;;;;;;9.50;4.60;;;;;;;;;;5020241;28;20211;-69
2022/04/02 09:07:52;;;;;;;10.35;4.13;;;;;;;;;;5016424;28;20290;-69
2022/04/02 09:10:36;;;;;;;11.23;5.05;;;;;;;;;;5016032;28;20048;-68
2022/04/02 09:13:30;;;;;;;11.50;4.97;;;;;;;;;;5017570;28;20038;-68
2022/04/02 09:15:58;;;;;;;10.90;4.15;;;;;;;;;;4996848;28;20038;-68
2022/04/02 09:18:26;;;;;;;9.73;5.45;;;;;;;;;;5012714;28;20030;-67
2022/04/02 09:20:56;;;;;;;8.65;4.55;;;;;;;;;;5013986;28;20483;-69
2022/04/02 09:23:53;;;;;;;11.20;5.63;;;;;;;;;;5010500;28;20108;-69
2022/04/02 09:26:21;;;;;;;9.38;4.75;;;;;;;;;;4991580;28;20026;-69
2022/04/02 09:28:47;;;;;;;11.20;4.15;;;;;;;;;;5017500;28;20167;-70
2022/04/02 09:31:19;;;;;;;11.20;5.18;;;;;;;;;;5014266;28;20034;-68
2022/04/02 09:34:03;;;;;;;11.13;5.50;;;;;;;;;;5014683;28;20225;-67
2022/04/02 09:36:34;;;;;;;12.80;5.80;;;;;;;;;;5014026;28;20543;-68
2022/04/02 09:39:20;;;;;;;9.35;4.82;;;;;;;;;;5020884;28;20025;-68
2022/04/02 09:41:55;;;;;;;8.70;4.22;;;;;;;;;;4997133;28;20042;-67
2022/04/02 09:44:39;;;;;;;10.93;4.88;;;;;;;;;;5018059;28;20032;-68
2022/04/02 09:47:05;;;;;;;11.18;5.13;;;;;;;;;;5026806;28;20044;-67
2022/04/02 09:49:34;;;;;;;9.75;4.82;;;;;;;;;;5014976;28;20484;-68
2022/04/02 09:52:04;;;;;;;8.35;4.93;;;;;;;;;;5024122;28;20428;-67
2022/04/02 09:54:44;;;;;;;8.00;4.70;;;;;;;;;;5016286;28;20021;-68
2022/04/02 09:57:32;;;;;;;8.57;5.10;;;;;;;;;;5018358;28;20418;-68
2022/04/02 10:00:05;;;;;;;10.57;4.75;;;;;;;;;;5008549;28;20056;-68
2022/04/02 10:02:36;;;;;;;10.40;5.72;;;;;;;;;;5024598;28;20025;-68
2022/04/02 10:05:05;;;;;;;13.85;5.38;;;;;;;;;;5026364;28;20029;-68
2022/04/02 10:07:56;;;;;;;11.13;4.80;;;;;;;;;;5022746;28;20035;-68
2022/04/02 10:10:25;;;;;;;8.82;5.55;;;;;;;;;;5016748;28;20097;-68
2022/04/02 10:12:52;;;;;;;10.52;5.72;;;;;;;;;;5011309;28;20036;-68
2022/04/02 10:15:19;;;;;;;6.93;4.40;;;;;;;;;;5015481;28;20022;-69
2022/04/02 10:17:50;;;;;;;8.70;4.65;;;;;;;;;;5020280;28;20095;-67
2022/04/02 10:20:18;;;;;;;9.25;4.93;;;;;;;;;;5022617;28;20076;-68
2022/04/02 10:22:44;;;;;;;8.38;4.28;;;;;;;;;;5018101;28;20025;-73
2022/04/02 10:25:11;;;;;;;9.93;4.72;;;;;;;;;;5018108;28;20029;-70
2022/04/02 10:27:37;;;;;;;8.05;4.55;;;;;;;;;;5015334;28;20120;-70
2022/04/02 10:30:07;;;;;;;7.00;4.10;;;;;;;;;;5020206;28;20052;-66
2022/04/02 10:32:52;;;;;;;9.00;4.88;;;;;;;;;;5014381;28;20030;-69
2022/04/02 10:35:18;;;;;;;16.17;5.07;;;;;;;;;;5025708;28;20104;-69
2022/04/02 10:37:51;;;;;;;8.63;4.47;;;;;;;;;;5024203;28;20547;-69
2022/04/02 10:40:17;;;;;;;12.00;5.03;;;;;;;;;;5023406;28;20017;-70
2022/04/02 10:42:46;;;;;;;8.68;4.82;;;;;;;;;;5014280;28;20025;-69
2022/04/02 10:45:12;;;;;;;10.48;6.25;;;;;;;;;;5020713;28;20498;-67
2022/04/02 10:47:43;;;;;;;8.07;4.88;;;;;;;;;;5011736;28;20026;-66
2022/04/02 10:50:09;;;;;;;10.93;5.00;;;;;;;;;;5019376;28;20025;-68
2022/04/02 10:52:35;;;;;;;7.07;4.13;;;;;;;;;;5019426;28;20075;-71
2022/04/02 10:55:00;;;;;;;7.40;4.13;;;;;;;;;;5019724;28;20472;-67
2022/04/02 10:57:29;;;;;;;9.80;4.95;;;;;;;;;;5019599;28;20044;-69
2022/04/02 11:00:03;;;;;;;11.40;4.97;;;;;;;;;;5018342;28;20017;-71
2022/04/02 11:02:41;;;;;;;7.78;3.70;;;;;;;;;;5019106;28;20108;-70
2022/04/02 11:05:09;;;;;;;8.82;3.67;;;;;;;;;;5015002;28;20473;-71
2022/04/02 11:07:40;;;;;;;6.75;3.15;;;;;;;;;;5024251;28;20033;-69
2022/04/02 11:10:06;;;;;;;6.22;3.40;;;;;;;;;;5018477;28;20114;-71
2022/04/02 11:12:41;;;;;;;7.82;3.33;;;;;;;;;;5016331;28;20109;-70
2022/04/02 11:15:07;;;;;;;8.90;4.03;;;;;;;;;;5012608;28;20060;-68
2022/04/02 11:17:33;;;;;;;5.82;3.45;;;;;;;;;;5018991;28;20141;-71
2022/04/02 11:20:17;;;;;;;7.13;4.60;;;;;;;;;;5023104;28;20025;-71
2022/04/02 11:22:46;;;;;;;6.97;3.78;;;;;;;;;;5016345;28;20032;-73
2022/04/02 11:25:19;;;;;;;7.68;3.50;;;;;;;;;;5017577;28;20045;-73
2022/04/02 11:27:48;;;;;;;8.07;4.00;;;;;;;;;;5017702;28;20735;-68
2022/04/02 11:30:15;;;;;;;6.80;3.28;;;;;;;;;;5023881;28;20025;-74
2022/04/02 11:32:42;;;;;;;6.78;4.10;;;;;;;;;;5020693;28;20033;-71
2022/04/02 11:35:08;;;;;;;5.43;3.47;;;;;;;;;;5015531;28;20234;-74
2022/04/02 11:37:39;;;;;;;5.60;3.70;;;;;;;;;;5015093;28;20025;-71
2022/04/02 11:40:08;;;;;;;3.58;2.90;;;;;;;;;;5018795;28;20025;-73
2022/04/02 11:42:34;;;;;;;4.15;3.00;;;;;;;;;;5021445;28;20494;-69
2022/04/02 11:45:02;;;;;;;3.47;2.85;;;;;;;;;;5025090;28;20021;-69
2022/04/02 11:47:28;;;;;;;5.40;2.85;;;;;;;;;;5024089;28;20045;-71
2022/04/02 11:50:01;;;;;;;8.77;3.08;;;;;;;;;;5010920;28;20100;-68
2022/04/02 11:52:26;;;;;;;9.23;3.35;;;;;;;;;;5015847;28;20056;-70
2022/04/02 11:54:51;;;;;;;5.65;3.65;;;;;;;;;;5015405;28;20480;-71
2022/04/02 11:57:17;;;;;;;3.47;2.33;;;;;;;;;;5019968;28;20029;-72
2022/04/02 11:59:49;;;;;;;8.65;3.03;;;;;;;;;;5017477;28;20312;-72
2022/04/02 12:02:32;;;;;;;8.73;4.88;;;;;;;;;;5014558;28;20025;-71
2022/04/02 12:05:00;;;;;;;5.55;2.63;;;;;;;;;;5018586;28;20426;-71
2022/04/02 12:07:37;;;;;;;5.97;2.70;;;;;;;;;;5017913;28;20029;-72
2022/04/02 12:10:02;;;;;;;9.63;3.92;;;;;;;;;;5017933;28;20559;-71
2022/04/02 12:12:28;;;;;;;7.20;2.97;;;;;;;;;;5017299;28;20120;-69
2022/04/02 12:14:58;;;;;;;3.88;3.05;;;;;;;;;;5013796;28;20206;-71
2022/04/02 12:17:30;;;;;;;4.47;2.55;;;;;;;;;;5018294;28;20433;-71
2022/04/02 12:19:55;;;;;;;5.00;2.90;;;;;;;;;;5016064;28;20021;-69
2022/04/02 12:22:27;;;;;;;11.00;3.00;;;;;;;;;;5011870;28;20092;-70
2022/04/02 12:24:54;;;;;;;3.40;2.70;;;;;;;;;;5020738;28;20048;-70
2022/04/02 12:27:20;;;;;;;5.03;2.53;;;;;;;;;;5018589;28;20036;-69
2022/04/02 12:29:46;;;;;;;8.07;3.15;;;;;;;;;;5016764;28;20140;-69
2022/04/02 12:32:12;;;;;;;3.53;2.90;;;;;;;;;;5015920;28;20018;-70
2022/04/02 12:34:38;;;;;;;3.92;2.65;;;;;;;;;;5017598;28;20017;-70
2022/04/02 12:37:03;;;;;;;4.45;2.63;;;;;;;;;;5020372;28;20061;-78
2022/04/02 12:39:28;;;;;;;3.67;2.50;;;;;;;;;;5013423;28;20441;-71
2022/04/02 12:41:54;;;;;;;22.63;3.80;;;;;;;;;;5018089;28;20063;-71
2022/04/02 12:44:20;;;;;;;6.75;3.13;;;;;;;;;;5013530;28;21135;-72
2022/04/02 12:46:45;;;;;;;4.82;2.70;;;;;;;;;;5013171;28;20279;-71
2022/04/02 12:49:26;;;;;;;3.63;2.92;;;;;;;;;;5009666;28;20498;-68
2022/04/02 12:52:08;;;;;;;5.35;2.85;;;;;;;;;;5014803;28;20053;-71
2022/04/02 12:54:33;;;;;;;6.07;2.78;;;;;;;;;;5017995;28;20052;-70
2022/04/02 12:57:10;;;;;;;3.28;2.50;;;;;;;;;;5017835;28;20105;-68
2022/04/02 12:59:40;;;;;;;15.25;3.92;;;;;;;;;;5016961;28;20108;-69
2022/04/02 13:02:05;;;;;;;11.93;3.35;;;;;;;;;;5023847;28;20029;-71
2022/04/02 13:04:31;;;;;;;13.60;3.38;;;;;;;;;;5014455;28;20035;-71
2022/04/02 13:06:58;;;;;;;3.72;2.45;;;;;;;;;;5018705;28;20479;-69
2022/04/02 13:09:30;;;;;;;5.45;2.40;;;;;;;;;;5022499;28;20088;-68
2022/04/02 13:11:56;;;;;;;5.28;2.53;;;;;;;;;;5017309;28;20037;-69
2022/04/02 13:14:28;;;;;;;6.85;3.17;;;;;;;;;;5018232;28;20032;-74
2022/04/02 13:17:05;;;;;;;6.40;2.83;;;;;;;;;;5024335;28;20028;-72
2022/04/02 13:22:16;;;;;;;11.48;2.72;;;;;;;;;;5012355;28;20044;-71
2022/04/02 13:24:47;;;;;;;5.50;2.70;;;;;;;;;;5014548;28;20374;-73
2022/04/02 13:27:31;;;;;;;4.07;2.70;;;;;;;;;;5020508;28;20439;-69
2022/04/02 13:30:09;;;;;;;7.30;2.63;;;;;;;;;;5015158;28;20029;-70
2022/04/02 13:32:38;;;;;;;8.43;3.15;;;;;;;;;;5014041;28;20209;-68
2022/04/02 13:35:03;;;;;;;3.67;2.28;;;;;;;;;;5021314;28;20412;-67
2022/04/02 13:37:34;;;;;;;4.53;2.63;;;;;;;;;;5020001;28;20017;-67
2022/04/02 13:40:00;;;;;;;7.38;3.17;;;;;;;;;;5018626;28;20014;-67
2022/04/02 13:42:27;;;;;;;4.35;2.40;;;;;;;;;;5021396;28;20021;-69
2022/04/02 13:44:55;;;;;;;3.72;2.40;;;;;;;;;;5023420;28;20029;-72
2022/04/02 13:47:23;;;;;;;6.93;3.10;;;;;;;;;;5016813;28;20064;-70
2022/04/02 13:49:55;;;;;;;3.70;2.28;;;;;;;;;;5019895;28;20047;-67
2022/04/02 13:52:22;;;;;;;7.80;3.75;;;;;;;;;;5011487;28;20053;-68
2022/04/02 13:55:07;;;;;;;4.63;3.15;;;;;;;;;;5026074;28;20124;-68
2022/04/02 13:57:33;;;;;;;4.13;2.53;;;;;;;;;;5010978;28;20045;-69
2022/04/02 14:00:04;;;;;;;5.55;2.85;;;;;;;;;;5013763;28;20538;-68
2022/04/02 14:02:31;;;;;;;3.53;2.70;;;;;;;;;;5019201;28;20025;-69
2022/04/02 14:04:59;;;;;;;3.13;2.58;;;;;;;;;;5023933;28;20034;-68
2022/04/02 14:07:26;;;;;;;5.57;3.35;;;;;;;;;;5011519;28;20025;-70
2022/04/02 14:09:53;;;;;;;6.30;2.78;;;;;;;;;;5022173;28;20039;-69
2022/04/02 14:12:20;;;;;;;15.07;3.70;;;;;;;;;;5016246;28;20068;-71
2022/04/02 14:14:53;;;;;;;5.10;2.50;;;;;;;;;;5024951;28;20021;-69
2022/04/02 14:17:23;;;;;;;6.18;2.47;;;;;;;;;;5018630;28;20032;-72
2022/04/02 14:19:52;;;;;;;8.25;3.25;;;;;;;;;;5017754;28;20022;-69
2022/04/02 14:22:20;;;;;;;5.28;2.70;;;;;;;;;;5014721;28;20025;-71
2022/04/02 14:24:54;;;;;;;50.50;8.23;;;;;;;;;;5021302;28;20060;-71
2022/04/02 14:27:28;;;;;;;7.45;2.60;;;;;;;;;;5019690;28;20037;-75
2022/04/02 14:30:06;;;;;;;4.70;3.05;;;;;;;;;;5021432;28;20063;-71
2022/04/02 14:32:50;;;;;;;11.23;3.20;;;;;;;;;;5022304;28;20031;-71
2022/04/02 14:35:18;;;;;;;19.23;5.75;;;;;;;;;;5021608;28;20162;-70
2022/04/02 14:37:58;;;;;;;19.55;3.85;;;;;;;;;;5016601;28;20428;-72
2022/04/02 14:40:44;;;;;;;3.83;2.80;;;;;;;;;;5020678;28;20412;-72
2022/04/02 14:43:24;;;;;;;35.20;5.95;;;;;;;;;;5023723;28;20025;-70
2022/04/02 14:45:52;;;;;;;5.50;3.05;;;;;;;;;;5017367;28;20501;-72
2022/04/02 14:48:27;;;;;;;6.72;3.28;;;;;;;;;;5021036;28;20029;-72
2022/04/02 14:51:10;;;;;;;31.42;5.53;;;;;;;;;;5025579;28;20041;-72
2022/04/02 14:54:01;;;;;;;9.03;3.50;;;;;;;;;;5015899;28;20033;-71